createdAt,value
2019-04-30T00:00:12.666Z,7.48
2019-04-30T00:01:55.805Z,7.48
2019-04-30T00:03:41.628Z,7.48
2019-04-30T00:05:18.809Z,7.51
2019-04-30T00:06:55.630Z,7.43
2019-04-30T00:08:35.521Z,7.42
2019-04-30T00:10:08.503Z,7.41
2019-04-30T00:11:45.932Z,7.40
2019-04-30T00:13:21.112Z,7.38
2019-04-30T00:14:56.233Z,7.37
2019-04-30T00:16:39.855Z,7.39
2019-04-30T00:18:15.568Z,7.48
2019-04-30T00:19:55.966Z,7.39
2019-04-30T00:21:27.783Z,7.35
2019-04-30T00:23:05.044Z,7.36
2019-04-30T00:24:46.894Z,7.38
2019-04-30T00:26:19.513Z,7.45
2019-04-30T00:27:55.953Z,7.44
2019-04-30T00:29:31.245Z,7.44
2019-04-30T00:31:06.809Z,7.42
2019-04-30T00:32:43.673Z,7.40
2019-04-30T00:34:18.670Z,7.38
2019-04-30T00:35:55.178Z,7.40
2019-04-30T00:37:31.097Z,7.43
2019-04-30T00:39:13.097Z,7.46
2019-04-30T00:40:45.027Z,7.50
2019-04-30T00:42:24.382Z,7.41
2019-04-30T00:43:58.293Z,7.38
2019-04-30T00:45:40.057Z,7.41
2019-04-30T00:47:15.411Z,7.48
2019-04-30T00:48:50.915Z,7.52
2019-04-30T00:50:29.060Z,7.52
2019-04-30T00:52:07.764Z,7.52
2019-04-30T00:53:43.802Z,7.53
2019-04-30T00:55:20.514Z,7.53
2019-04-30T00:56:57.494Z,7.45
2019-04-30T00:58:32.265Z,7.49
2019-04-30T01:00:08.642Z,7.52
2019-04-30T01:02:19.982Z,7.50
2019-04-30T01:03:57.342Z,7.46
2019-04-30T01:05:32.456Z,7.41
2019-04-30T01:07:08.715Z,7.38
2019-04-30T01:08:46.104Z,7.49
2019-04-30T01:10:24.778Z,7.46
2019-04-30T01:11:57.685Z,7.45
2019-04-30T01:13:32.707Z,7.52
2019-04-30T01:15:11.230Z,7.49
2019-04-30T01:16:45.119Z,7.51
2019-04-30T01:18:23.677Z,7.48
2019-04-30T01:19:59.152Z,7.47
2019-04-30T01:21:33.988Z,7.45
2019-04-30T01:23:11.278Z,7.39
2019-04-30T01:24:46.135Z,7.43
2019-04-30T01:26:22.809Z,7.43
2019-04-30T01:27:58.559Z,7.39
2019-04-30T01:29:40.931Z,7.42
2019-04-30T01:31:10.688Z,7.39
2019-04-30T01:32:52.145Z,7.45
2019-04-30T01:34:22.821Z,7.39
2019-04-30T01:35:59.536Z,7.51
2019-04-30T01:37:34.823Z,7.41
2019-04-30T01:39:09.961Z,7.37
2019-04-30T01:40:47.505Z,7.42
2019-04-30T01:42:21.822Z,7.46
2019-04-30T01:43:58.504Z,7.35
2019-04-30T01:45:34.245Z,7.35
2019-04-30T01:47:09.311Z,7.45
2019-04-30T01:48:50.592Z,7.47
2019-04-30T01:50:22.042Z,7.49
2019-04-30T01:51:59.307Z,7.43
2019-04-30T01:53:34.094Z,7.42
2019-04-30T01:55:09.556Z,7.49
2019-04-30T01:56:55.675Z,7.47
2019-04-30T01:58:41.520Z,7.42
2019-04-30T02:00:26.109Z,7.44
2019-04-30T02:01:58.906Z,7.38
2019-04-30T02:03:33.918Z,7.34
2019-04-30T02:05:09.032Z,7.35
2019-04-30T02:06:44.384Z,7.39
2019-04-30T02:08:19.632Z,7.43
2019-04-30T02:09:55.276Z,7.41
2019-04-30T02:11:30.392Z,7.42
2019-04-30T02:13:05.730Z,7.37
2019-04-30T02:14:40.848Z,7.31
2019-04-30T02:16:15.864Z,7.34
2019-04-30T02:17:50.997Z,7.38
2019-04-30T02:19:26.400Z,7.37
2019-04-30T02:21:02.859Z,7.42
2019-04-30T02:22:38.921Z,7.38
2019-04-30T02:24:14.340Z,7.49
2019-04-30T02:25:49.463Z,7.48
2019-04-30T02:27:24.640Z,7.43
2019-04-30T02:29:01.017Z,7.49
2019-04-30T02:30:36.476Z,7.52
2019-04-30T02:32:11.552Z,7.44
2019-04-30T02:33:50.267Z,7.50
2019-04-30T02:35:40.706Z,7.55
2019-04-30T02:37:25.443Z,7.55
2019-04-30T02:39:02.746Z,7.53
2019-04-30T02:40:39.286Z,7.44
2019-04-30T02:42:14.150Z,7.43
2019-04-30T02:43:49.799Z,7.44
2019-04-30T02:45:24.874Z,7.40
2019-04-30T02:47:00.480Z,7.37
2019-04-30T02:48:39.300Z,7.36
2019-04-30T02:50:18.394Z,7.50
2019-04-30T02:51:50.315Z,7.51
2019-04-30T02:53:53.411Z,7.46
2019-04-30T02:56:09.930Z,7.51
2019-04-30T02:57:44.528Z,7.43
2019-04-30T02:59:20.285Z,7.46
2019-04-30T03:00:56.398Z,7.47
2019-04-30T03:02:32.351Z,7.42
2019-04-30T03:04:09.910Z,7.43
2019-04-30T03:05:44.801Z,7.50
2019-04-30T03:07:20.234Z,7.38
2019-04-30T03:08:55.300Z,7.34
2019-04-30T03:10:30.776Z,7.31
2019-04-30T03:12:06.131Z,7.28
2019-04-30T03:13:42.871Z,7.33
2019-04-30T03:15:19.503Z,7.43
2019-04-30T03:17:03.978Z,7.45
2019-04-30T03:18:59.558Z,7.37
2019-04-30T03:20:49.768Z,7.42
2019-04-30T03:22:29.963Z,7.37
2019-04-30T03:24:04.391Z,7.32
2019-04-30T03:25:40.507Z,7.22
2019-04-30T03:27:15.706Z,7.22
2019-04-30T03:28:50.720Z,7.18
2019-04-30T03:30:25.907Z,7.28
2019-04-30T03:32:03.155Z,7.36
2019-04-30T03:33:42.184Z,7.36
2019-04-30T03:35:16.213Z,7.33
2019-04-30T03:36:51.335Z,7.39
2019-04-30T03:38:26.639Z,7.36
2019-04-30T03:40:01.796Z,7.31
2019-04-30T03:41:40.434Z,7.36
2019-04-30T03:43:14.233Z,7.41
2019-04-30T03:44:49.678Z,7.42
2019-04-30T03:46:25.100Z,7.35
2019-04-30T03:48:00.536Z,7.35
2019-04-30T03:49:35.599Z,7.35
2019-04-30T03:51:10.858Z,7.38
2019-04-30T03:52:45.921Z,7.35
2019-04-30T03:54:20.941Z,7.31
2019-04-30T03:55:56.448Z,7.18
2019-04-30T03:57:31.489Z,7.12
2019-04-30T03:59:06.867Z,7.08
2019-04-30T04:01:01.651Z,7.08
2019-04-30T04:02:41.966Z,7.10
2019-04-30T04:04:26.778Z,7.08
2019-04-30T04:06:24.925Z,7.13
2019-04-30T04:08:25.112Z,7.13
2019-04-30T04:10:11.608Z,7.16
2019-04-30T04:11:47.195Z,7.07
2019-04-30T04:13:22.242Z,7.18
2019-04-30T04:15:03.315Z,7.05
2019-04-30T04:16:41.111Z,7.01
2019-04-30T04:18:15.766Z,7.03
2019-04-30T04:19:51.811Z,7.09
2019-04-30T04:21:29.821Z,7.09
2019-04-30T04:23:03.867Z,7.15
2019-04-30T04:24:40.229Z,7.18
2019-04-30T04:26:15.721Z,7.16
2019-04-30T04:27:51.214Z,7.20
2019-04-30T04:29:29.640Z,7.18
2019-04-30T04:31:03.386Z,7.12
2019-04-30T04:32:40.595Z,7.18
2019-04-30T04:34:15.516Z,7.17
2019-04-30T04:35:50.644Z,7.18
2019-04-30T04:37:29.453Z,7.14
2019-04-30T04:39:04.403Z,7.14
2019-04-30T04:40:40.178Z,7.22
2019-04-30T04:42:15.280Z,7.30
2019-04-30T04:43:50.677Z,7.24
2019-04-30T04:45:26.063Z,7.27
2019-04-30T04:47:04.162Z,7.22
2019-04-30T04:48:39.552Z,7.25
2019-04-30T04:50:15.026Z,7.27
2019-04-30T04:51:50.120Z,7.24
2019-04-30T04:53:25.235Z,7.19
2019-04-30T04:55:00.661Z,7.13
2019-04-30T04:56:35.856Z,7.20
2019-04-30T04:58:12.803Z,7.27
2019-04-30T04:59:49.952Z,7.34
2019-04-30T05:01:24.981Z,7.35
2019-04-30T05:03:20.186Z,7.33
2019-04-30T05:04:59.927Z,7.41
2019-04-30T05:06:36.322Z,7.36
2019-04-30T05:08:12.269Z,7.31
2019-04-30T05:09:48.957Z,7.27
2019-04-30T05:11:24.076Z,7.37
2019-04-30T05:13:02.646Z,7.48
2019-04-30T05:14:39.150Z,7.30
2019-04-30T05:16:19.114Z,7.30
2019-04-30T05:17:54.880Z,7.30
2019-04-30T05:19:30.728Z,7.21
2019-04-30T05:21:05.841Z,7.22
2019-04-30T05:22:41.648Z,7.29
2019-04-30T05:24:16.678Z,7.26
2019-04-30T05:25:52.596Z,7.35
2019-04-30T05:27:27.674Z,7.41
2019-04-30T05:29:04.229Z,7.40
2019-04-30T05:30:39.406Z,7.37
2019-04-30T05:32:15.695Z,7.52
2019-04-30T05:33:54.902Z,7.48
2019-04-30T05:35:34.072Z,7.47
2019-04-30T05:37:09.180Z,7.50
2019-04-30T05:38:44.618Z,7.40
2019-04-30T05:40:20.522Z,7.43
2019-04-30T05:41:56.174Z,7.53
2019-04-30T05:44:15.820Z,7.49
2019-04-30T05:45:50.959Z,7.42
2019-04-30T05:47:26.422Z,7.18
2019-04-30T05:49:01.504Z,7.17
2019-04-30T05:50:36.598Z,7.03
2019-04-30T05:52:12.094Z,7.09
2019-04-30T05:53:49.107Z,7.06
2019-04-30T05:55:23.921Z,7.16
2019-04-30T05:56:59.547Z,7.21
2019-04-30T05:58:34.573Z,7.36
2019-04-30T06:00:10.266Z,7.46
2019-04-30T06:01:48.763Z,7.53
2019-04-30T06:03:30.706Z,7.73
2019-04-30T06:05:04.270Z,7.82
2019-04-30T06:06:39.381Z,8.16
2019-04-30T06:08:19.241Z,8.33
2019-04-30T06:10:06.654Z,8.24
2019-04-30T06:12:15.314Z,8.33
2019-04-30T06:14:18.613Z,8.50
2019-04-30T06:15:59.416Z,8.78
2019-04-30T06:17:34.507Z,9.12
2019-04-30T06:19:11.894Z,9.34
2019-04-30T06:20:48.469Z,9.38
2019-04-30T06:22:24.334Z,9.73
2019-04-30T06:23:59.840Z,9.37
2019-04-30T06:25:52.904Z,9.17
2019-04-30T06:27:11.960Z,9.39
2019-04-30T06:28:49.667Z,9.81
2019-04-30T06:30:26.708Z,9.32
2019-04-30T06:32:04.097Z,9.55
2019-04-30T06:33:39.539Z,9.78
2019-04-30T06:35:14.662Z,10.15
2019-04-30T06:36:53.180Z,9.67
2019-04-30T06:38:30.324Z,9.33
2019-04-30T06:40:11.769Z,9.60
2019-04-30T06:41:46.988Z,9.42
2019-04-30T06:43:22.215Z,9.49
2019-04-30T06:44:59.120Z,9.79
2019-04-30T06:46:34.326Z,9.83
2019-04-30T06:48:09.922Z,10.00
2019-04-30T06:49:46.555Z,9.69
2019-04-30T06:51:21.698Z,9.65
2019-04-30T06:53:01.033Z,10.08
2019-04-30T06:54:39.281Z,10.45
2019-04-30T06:56:18.968Z,9.85
2019-04-30T06:58:11.450Z,10.00
2019-04-30T06:59:34.397Z,9.68
2019-04-30T07:01:09.889Z,10.02
2019-04-30T07:02:49.467Z,10.62
2019-04-30T07:04:25.730Z,10.71
2019-04-30T07:06:02.273Z,10.79
2019-04-30T07:07:41.678Z,10.51
2019-04-30T07:09:36.365Z,10.77
2019-04-30T07:11:36.051Z,10.85
2019-04-30T07:13:18.774Z,10.69
2019-04-30T07:14:54.127Z,10.64
2019-04-30T07:16:29.972Z,10.50
2019-04-30T07:18:06.122Z,10.09
2019-04-30T07:19:53.190Z,10.28
2019-04-30T07:21:19.772Z,10.38
2019-04-30T07:23:09.320Z,10.68
2019-04-30T07:24:46.677Z,10.47
2019-04-30T07:26:24.748Z,10.38
2019-04-30T07:28:03.238Z,10.55
2019-04-30T07:29:41.462Z,10.64
2019-04-30T07:31:19.734Z,10.97
2019-04-30T07:32:55.189Z,11.19
2019-04-30T07:34:37.063Z,11.33
2019-04-30T07:36:10.593Z,11.31
2019-04-30T07:37:45.692Z,11.35
2019-04-30T07:39:23.520Z,11.38
2019-04-30T07:40:59.122Z,11.25
2019-04-30T07:42:44.500Z,11.18
2019-04-30T07:44:31.016Z,10.95
2019-04-30T07:45:59.773Z,10.94
2019-04-30T07:47:35.445Z,10.97
2019-04-30T07:49:10.576Z,10.94
2019-04-30T07:50:53.572Z,10.57
2019-04-30T07:52:33.314Z,10.59
2019-04-30T07:54:09.155Z,10.62
2019-04-30T07:55:49.236Z,11.09
2019-04-30T07:57:29.183Z,11.18
2019-04-30T07:59:05.238Z,11.22
2019-04-30T08:00:40.496Z,11.46
2019-04-30T08:02:20.865Z,11.41
2019-04-30T08:04:56.685Z,12.04
2019-04-30T08:06:32.139Z,11.76
2019-04-30T08:08:20.269Z,11.20
2019-04-30T08:09:44.903Z,11.40
2019-04-30T08:11:26.496Z,11.99
2019-04-30T08:13:10.329Z,12.26
2019-04-30T08:14:42.043Z,12.19
2019-04-30T08:16:18.670Z,11.57
2019-04-30T08:18:03.424Z,11.93
2019-04-30T08:19:38.791Z,12.34
2019-04-30T08:21:19.050Z,12.38
2019-04-30T08:23:12.529Z,12.50
2019-04-30T08:24:38.974Z,12.86
2019-04-30T08:26:14.743Z,12.66
2019-04-30T08:27:49.776Z,12.87
2019-04-30T08:29:25.218Z,12.86
2019-04-30T08:31:02.992Z,13.45
2019-04-30T08:32:43.442Z,13.55
2019-04-30T08:34:20.155Z,12.98
2019-04-30T08:35:55.457Z,13.14
2019-04-30T08:37:30.874Z,13.18
2019-04-30T08:39:09.684Z,13.28
2019-04-30T08:40:57.663Z,13.40
2019-04-30T08:42:33.764Z,13.47
2019-04-30T08:44:12.381Z,13.01
2019-04-30T08:45:52.834Z,12.97
2019-04-30T08:47:33.868Z,12.41
2019-04-30T08:49:13.621Z,12.42
2019-04-30T08:50:49.512Z,12.78
2019-04-30T08:52:25.394Z,12.83
2019-04-30T08:54:00.961Z,12.69
2019-04-30T08:55:36.237Z,12.95
2019-04-30T08:57:11.347Z,13.18
2019-04-30T08:58:50.000Z,12.87
2019-04-30T09:00:25.089Z,13.00
2019-04-30T09:02:15.349Z,13.08
2019-04-30T09:03:40.047Z,12.76
2019-04-30T09:05:21.738Z,12.85
2019-04-30T09:06:59.820Z,13.08
2019-04-30T09:08:35.112Z,13.46
2019-04-30T09:10:10.160Z,13.23
2019-04-30T09:11:52.992Z,13.02
2019-04-30T09:13:22.702Z,13.31
2019-04-30T09:14:59.442Z,13.35
2019-04-30T09:16:34.694Z,12.91
2019-04-30T09:18:12.468Z,13.29
2019-04-30T09:19:49.459Z,13.33
2019-04-30T09:21:26.048Z,13.97
2019-04-30T09:23:01.131Z,14.05
2019-04-30T09:24:39.171Z,13.86
2019-04-30T09:26:19.621Z,14.20
2019-04-30T09:27:58.576Z,14.05
2019-04-30T09:29:31.627Z,14.61
2019-04-30T09:31:08.727Z,14.99
2019-04-30T09:32:44.720Z,15.09
2019-04-30T09:34:21.131Z,15.15
2019-04-30T09:35:59.635Z,15.24
2019-04-30T09:37:38.991Z,14.68
2019-04-30T09:39:22.905Z,13.83
2019-04-30T09:40:59.384Z,14.54
2019-04-30T09:42:34.644Z,14.80
2019-04-30T09:44:12.176Z,15.02
2019-04-30T09:45:49.564Z,15.81
2019-04-30T09:47:29.572Z,16.00
2019-04-30T09:49:09.654Z,16.16
2019-04-30T09:50:45.095Z,16.49
2019-04-30T09:52:21.223Z,15.95
2019-04-30T09:54:00.597Z,15.42
2019-04-30T09:55:33.833Z,14.93
2019-04-30T09:57:11.447Z,15.00
2019-04-30T09:58:49.302Z,14.24
2019-04-30T10:00:29.302Z,14.19
2019-04-30T10:02:09.149Z,15.21
2019-04-30T10:03:46.058Z,14.90
2019-04-30T10:05:22.754Z,15.66
2019-04-30T10:06:59.556Z,15.45
2019-04-30T10:08:48.199Z,15.16
2019-04-30T10:10:22.064Z,15.29
2019-04-30T10:12:14.807Z,14.38
2019-04-30T10:13:49.883Z,14.79
2019-04-30T10:15:50.006Z,13.85
2019-04-30T10:17:41.586Z,13.58
2019-04-30T10:19:19.141Z,14.45
2019-04-30T10:21:00.916Z,14.26
2019-04-30T10:22:39.933Z,14.59
2019-04-30T10:24:15.714Z,14.31
2019-04-30T10:25:52.043Z,14.91
2019-04-30T10:27:29.314Z,14.81
2019-04-30T10:29:10.192Z,14.97
2019-04-30T10:30:46.048Z,14.92
2019-04-30T10:32:25.947Z,15.27
2019-04-30T10:34:02.008Z,15.61
2019-04-30T10:35:38.633Z,15.95
2019-04-30T10:37:14.632Z,16.27
2019-04-30T10:38:52.290Z,16.66
2019-04-30T10:40:28.699Z,16.29
2019-04-30T10:42:06.616Z,16.43
2019-04-30T10:43:49.198Z,16.43
2019-04-30T10:45:33.273Z,16.21
2019-04-30T10:47:11.469Z,16.15
2019-04-30T10:48:46.734Z,16.36
2019-04-30T10:50:28.299Z,15.63
2019-04-30T10:52:03.403Z,15.29
2019-04-30T10:53:39.526Z,16.12
2019-04-30T10:55:15.176Z,16.75
2019-04-30T10:56:52.204Z,16.22
2019-04-30T10:58:28.497Z,16.82
2019-04-30T11:00:07.756Z,17.03
2019-04-30T11:01:52.655Z,15.95
2019-04-30T11:03:32.012Z,16.28
2019-04-30T11:05:10.500Z,15.94
2019-04-30T11:07:08.516Z,15.88
2019-04-30T11:08:46.045Z,16.17
2019-04-30T11:10:21.261Z,15.35
2019-04-30T11:11:57.108Z,15.04
2019-04-30T11:13:32.811Z,15.67
2019-04-30T11:15:14.498Z,15.65
2019-04-30T11:16:51.461Z,16.26
2019-04-30T11:18:30.796Z,16.89
2019-04-30T11:20:10.411Z,17.10
2019-04-30T11:21:45.833Z,17.09
2019-04-30T11:23:27.557Z,16.46
2019-04-30T11:25:02.935Z,16.50
2019-04-30T11:26:41.682Z,16.34
2019-04-30T11:28:31.867Z,16.95
2019-04-30T11:30:20.725Z,17.01
2019-04-30T11:32:08.003Z,17.23
2019-04-30T11:33:50.898Z,17.52
2019-04-30T11:35:29.996Z,17.48
2019-04-30T11:37:07.464Z,18.09
2019-04-30T11:38:43.038Z,17.66
2019-04-30T11:40:18.277Z,18.05
2019-04-30T11:41:56.317Z,17.35
2019-04-30T11:43:35.038Z,17.20
2019-04-30T11:45:13.269Z,17.52
2019-04-30T11:47:22.474Z,17.93
2019-04-30T11:48:58.716Z,18.15
2019-04-30T11:50:43.148Z,17.10
2019-04-30T11:52:18.219Z,17.05
2019-04-30T11:53:59.182Z,17.22
2019-04-30T11:55:36.372Z,17.70
2019-04-30T11:57:21.182Z,17.66
2019-04-30T11:58:58.739Z,17.70
2019-04-30T12:00:39.483Z,17.50
2019-04-30T12:02:35.090Z,17.31
2019-04-30T12:04:16.141Z,16.85
2019-04-30T12:05:58.939Z,16.01
2019-04-30T12:07:51.972Z,16.37
2019-04-30T12:09:55.793Z,16.56
2019-04-30T12:11:35.321Z,16.61
2019-04-30T12:13:31.629Z,17.03
2019-04-30T12:15:10.011Z,16.94
2019-04-30T12:16:50.724Z,17.41
2019-04-30T12:18:26.508Z,16.94
2019-04-30T12:20:01.665Z,17.41
2019-04-30T12:21:37.596Z,17.68
2019-04-30T12:23:13.423Z,17.53
2019-04-30T12:25:02.535Z,16.94
2019-04-30T12:26:29.960Z,17.09
2019-04-30T12:28:05.098Z,16.81
2019-04-30T12:29:43.467Z,17.17
2019-04-30T12:31:20.528Z,17.28
2019-04-30T12:32:59.072Z,17.33
2019-04-30T12:34:32.911Z,17.61
2019-04-30T12:36:09.700Z,17.78
2019-04-30T12:37:58.918Z,17.85
2019-04-30T12:39:40.300Z,17.20
2019-04-30T12:41:18.578Z,17.41
2019-04-30T12:42:59.866Z,17.46
2019-04-30T12:44:54.586Z,17.83
2019-04-30T12:46:31.404Z,18.57
2019-04-30T12:48:20.025Z,18.44
2019-04-30T12:50:15.202Z,18.77
2019-04-30T12:52:09.481Z,18.01
2019-04-30T12:53:52.960Z,17.21
2019-04-30T12:56:01.643Z,17.14
2019-04-30T12:57:56.139Z,17.27
2019-04-30T12:59:26.756Z,17.73
2019-04-30T13:01:04.764Z,17.92
2019-04-30T13:02:42.817Z,17.82
2019-04-30T13:04:19.386Z,18.10
2019-04-30T13:05:55.230Z,17.95
2019-04-30T13:07:40.115Z,18.19
2019-04-30T13:09:16.031Z,18.35
2019-04-30T13:10:54.308Z,18.23
2019-04-30T13:12:30.444Z,18.37
2019-04-30T13:14:06.815Z,18.44
2019-04-30T13:15:46.860Z,17.41
2019-04-30T13:17:25.186Z,17.20
2019-04-30T13:19:03.262Z,17.38
2019-04-30T13:20:46.347Z,17.43
2019-04-30T13:22:23.600Z,17.44
2019-04-30T13:23:58.799Z,17.73
2019-04-30T13:25:35.773Z,17.50
2019-04-30T13:27:16.203Z,17.35
2019-04-30T13:29:05.373Z,17.74
2019-04-30T13:30:44.246Z,17.47
2019-04-30T13:32:30.033Z,17.45
2019-04-30T13:34:35.070Z,17.55
2019-04-30T13:36:12.452Z,17.19
2019-04-30T13:37:58.967Z,16.66
2019-04-30T13:39:49.903Z,16.87
2019-04-30T13:41:29.645Z,16.69
2019-04-30T13:43:08.282Z,16.50
2019-04-30T13:44:46.289Z,16.59
2019-04-30T13:46:28.477Z,16.61
2019-04-30T13:48:10.560Z,16.77
2019-04-30T13:49:49.902Z,17.12
2019-04-30T13:51:27.864Z,16.90
2019-04-30T13:53:08.757Z,17.14
2019-04-30T13:54:46.321Z,16.96
2019-04-30T13:56:25.792Z,17.50
2019-04-30T13:58:02.812Z,17.28
2019-04-30T13:59:40.997Z,17.62
2019-04-30T14:01:39.079Z,17.83
2019-04-30T14:03:40.790Z,17.91
2019-04-30T14:05:20.862Z,17.90
2019-04-30T14:07:15.310Z,17.43
2019-04-30T14:08:52.958Z,17.23
2019-04-30T14:10:32.798Z,17.33
2019-04-30T14:12:10.074Z,17.29
2019-04-30T14:13:45.294Z,17.37
2019-04-30T14:15:21.506Z,17.40
2019-04-30T14:16:58.704Z,17.54
2019-04-30T14:18:39.090Z,17.67
2019-04-30T14:20:16.111Z,17.80
2019-04-30T14:21:54.165Z,17.70
2019-04-30T14:23:29.270Z,17.90
2019-04-30T14:25:06.420Z,17.44
2019-04-30T14:26:41.695Z,17.26
2019-04-30T14:28:19.709Z,17.23
2019-04-30T14:29:56.331Z,16.87
2019-04-30T14:31:31.696Z,17.25
2019-04-30T14:33:09.429Z,17.13
2019-04-30T14:34:50.707Z,17.39
2019-04-30T14:36:25.918Z,17.59
2019-04-30T14:38:09.053Z,17.85
2019-04-30T14:40:00.655Z,17.89
2019-04-30T14:41:39.664Z,17.88
2019-04-30T14:43:25.541Z,18.28
2019-04-30T14:45:17.277Z,18.03
2019-04-30T14:47:06.663Z,17.96
2019-04-30T14:48:48.110Z,18.22
2019-04-30T14:50:29.806Z,18.49
2019-04-30T14:52:09.177Z,18.63
2019-04-30T14:54:14.695Z,18.57
2019-04-30T14:56:11.736Z,17.97
2019-04-30T14:58:20.433Z,17.64
2019-04-30T15:00:20.476Z,17.93
2019-04-30T15:02:08.892Z,17.44
2019-04-30T15:03:43.661Z,17.81
2019-04-30T15:05:22.640Z,17.78
2019-04-30T15:06:58.789Z,17.86
2019-04-30T15:08:34.200Z,17.89
2019-04-30T15:10:14.008Z,18.01
2019-04-30T15:11:58.540Z,17.92
2019-04-30T15:13:39.329Z,17.33
2019-04-30T15:15:20.849Z,17.41
2019-04-30T15:16:56.731Z,17.46
2019-04-30T15:18:35.891Z,17.32
2019-04-30T15:20:15.575Z,17.50
2019-04-30T15:21:51.066Z,17.41
2019-04-30T15:23:58.568Z,17.49
2019-04-30T15:25:34.324Z,17.52
2019-04-30T15:27:09.358Z,17.22
2019-04-30T15:28:44.692Z,17.19
2019-04-30T15:30:23.797Z,17.38
2019-04-30T15:31:59.374Z,17.35
2019-04-30T15:34:02.550Z,17.54
2019-04-30T15:35:32.965Z,17.52
2019-04-30T15:37:21.189Z,17.42
2019-04-30T15:39:22.546Z,17.46
2019-04-30T15:40:59.796Z,17.24
2019-04-30T15:42:36.541Z,16.75
2019-04-30T15:44:22.109Z,16.61
2019-04-30T15:45:53.935Z,16.61
2019-04-30T15:47:32.882Z,16.69
2019-04-30T15:49:24.492Z,16.57
2019-04-30T15:51:04.184Z,16.30
2019-04-30T15:52:45.426Z,16.11
2019-04-30T15:54:20.979Z,15.81
2019-04-30T15:56:01.352Z,15.70
2019-04-30T15:58:00.268Z,15.69
2019-04-30T15:59:53.151Z,15.61
2019-04-30T16:01:33.578Z,15.30
2019-04-30T16:03:24.681Z,15.25
2019-04-30T16:05:10.670Z,15.21
2019-04-30T16:06:45.756Z,15.20
2019-04-30T16:08:32.229Z,15.23
2019-04-30T16:10:21.282Z,15.27
2019-04-30T16:12:21.899Z,15.37
2019-04-30T16:14:21.294Z,15.29
2019-04-30T16:15:56.513Z,15.49
2019-04-30T16:17:36.621Z,15.57
2019-04-30T16:19:11.848Z,15.74
2019-04-30T16:20:48.104Z,15.86
2019-04-30T16:22:24.359Z,15.90
2019-04-30T16:23:59.581Z,15.81
2019-04-30T16:25:36.631Z,15.85
2019-04-30T16:27:14.605Z,15.68
2019-04-30T16:28:49.727Z,15.51
2019-04-30T16:30:25.027Z,15.26
2019-04-30T16:32:00.200Z,14.97
2019-04-30T16:33:35.258Z,14.82
2019-04-30T16:35:13.558Z,14.87
2019-04-30T16:36:49.556Z,14.84
2019-04-30T16:39:36.080Z,14.77
2019-04-30T16:41:11.878Z,14.97
2019-04-30T16:42:48.950Z,15.12
2019-04-30T16:44:37.251Z,15.25
2019-04-30T16:46:16.982Z,15.24
2019-04-30T16:47:56.663Z,15.30
2019-04-30T16:49:34.061Z,15.39
2019-04-30T16:51:09.461Z,15.46
2019-04-30T16:52:44.711Z,15.52
2019-04-30T16:54:21.017Z,15.46
2019-04-30T16:55:58.542Z,15.53
2019-04-30T16:57:49.821Z,15.55
2019-04-30T16:59:35.839Z,15.53
2019-04-30T17:01:18.237Z,15.44
2019-04-30T17:03:00.777Z,15.57
2019-04-30T17:04:56.422Z,15.30
2019-04-30T17:06:45.218Z,15.19
2019-04-30T17:08:35.222Z,15.11
2019-04-30T17:10:34.771Z,15.01
2019-04-30T17:12:38.580Z,14.90
2019-04-30T17:14:12.260Z,14.79
2019-04-30T17:15:52.526Z,14.76
2019-04-30T17:17:34.598Z,14.83
2019-04-30T17:19:12.767Z,14.75
2019-04-30T17:20:50.605Z,14.89
2019-04-30T17:22:29.220Z,14.84
2019-04-30T17:24:10.199Z,14.87
2019-04-30T17:25:53.930Z,14.82
2019-04-30T17:27:30.142Z,14.92
2019-04-30T17:29:05.443Z,14.89
2019-04-30T17:30:41.046Z,14.99
2019-04-30T17:32:18.660Z,14.78
2019-04-30T17:33:57.463Z,14.68
2019-04-30T17:35:45.114Z,14.61
2019-04-30T17:37:20.560Z,14.70
2019-04-30T17:38:55.811Z,14.63
2019-04-30T17:40:30.886Z,14.68
2019-04-30T17:42:09.925Z,14.66
2019-04-30T17:43:49.588Z,14.53
2019-04-30T17:45:29.214Z,14.43
2019-04-30T17:47:09.034Z,14.51
2019-04-30T17:48:49.407Z,14.50
2019-04-30T17:50:29.652Z,14.59
2019-04-30T17:52:08.874Z,14.58
2019-04-30T17:54:10.977Z,14.58
2019-04-30T17:55:48.972Z,14.41
2019-04-30T17:57:32.310Z,14.31
2019-04-30T17:59:08.049Z,14.20
2019-04-30T18:00:51.245Z,14.18
2019-04-30T18:02:32.814Z,14.15
2019-04-30T18:04:11.198Z,14.11
2019-04-30T18:05:49.217Z,13.91
2019-04-30T18:07:29.545Z,13.79
2019-04-30T18:09:10.823Z,13.82
2019-04-30T18:10:45.329Z,13.79
2019-04-30T18:12:23.479Z,13.75
2019-04-30T18:14:06.001Z,13.63
2019-04-30T18:15:42.056Z,13.50
2019-04-30T18:17:22.754Z,13.39
2019-04-30T18:19:22.131Z,13.32
2019-04-30T18:21:13.596Z,13.23
2019-04-30T18:23:00.067Z,13.07
2019-04-30T18:25:06.072Z,13.00
2019-04-30T18:26:52.983Z,12.93
2019-04-30T18:28:33.803Z,12.81
2019-04-30T18:30:13.730Z,12.65
2019-04-30T18:31:59.655Z,12.55
2019-04-30T18:33:37.702Z,12.46
2019-04-30T18:35:15.193Z,12.40
2019-04-30T18:36:59.369Z,12.38
2019-04-30T18:38:35.719Z,12.25
2019-04-30T18:40:14.183Z,12.18
2019-04-30T18:41:51.062Z,12.10
2019-04-30T18:43:28.616Z,12.00
2019-04-30T18:45:06.278Z,11.96
2019-04-30T18:46:49.106Z,11.93
2019-04-30T18:48:24.500Z,11.91
2019-04-30T18:50:03.927Z,11.78
2019-04-30T18:51:42.732Z,11.72
2019-04-30T18:53:22.631Z,11.58
2019-04-30T18:54:59.540Z,11.60
2019-04-30T18:56:39.197Z,11.52
2019-04-30T18:58:19.703Z,11.36
2019-04-30T18:59:54.974Z,11.30
2019-04-30T19:01:34.731Z,11.35
2019-04-30T19:03:21.581Z,11.27
2019-04-30T19:04:59.518Z,11.18
2019-04-30T19:06:35.766Z,11.09
2019-04-30T19:08:20.319Z,11.02
2019-04-30T19:10:22.626Z,11.04
2019-04-30T19:12:41.490Z,11.03
2019-04-30T19:14:44.834Z,10.90
2019-04-30T19:16:41.883Z,10.84
2019-04-30T19:18:33.106Z,10.77
2019-04-30T19:20:28.764Z,10.74
2019-04-30T19:22:18.585Z,10.75
2019-04-30T19:24:00.839Z,10.74
2019-04-30T19:25:39.782Z,10.75
2019-04-30T19:27:18.678Z,10.67
2019-04-30T19:28:56.102Z,10.69
2019-04-30T19:30:33.337Z,10.70
2019-04-30T19:32:15.017Z,10.67
2019-04-30T19:33:50.265Z,10.66
2019-04-30T19:35:25.395Z,10.66
2019-04-30T19:37:02.554Z,10.65
2019-04-30T19:38:39.231Z,10.63
2019-04-30T19:40:19.030Z,10.55
2019-04-30T19:41:54.623Z,10.50
2019-04-30T19:43:31.767Z,10.45
2019-04-30T19:45:16.436Z,10.40
2019-04-30T19:46:58.566Z,10.35
2019-04-30T19:48:40.489Z,10.34
2019-04-30T19:50:19.338Z,10.29
2019-04-30T19:52:06.155Z,10.27
2019-04-30T19:53:33.211Z,10.30
2019-04-30T19:55:10.980Z,10.27
2019-04-30T19:56:53.770Z,10.25
2019-04-30T19:58:46.734Z,10.19
2019-04-30T20:00:29.310Z,10.25
2019-04-30T20:02:10.635Z,10.20
2019-04-30T20:04:02.496Z,10.20
2019-04-30T20:05:56.189Z,10.24
2019-04-30T20:07:59.203Z,10.20
2019-04-30T20:09:43.175Z,10.14
2019-04-30T20:11:26.678Z,10.11
2019-04-30T20:13:06.097Z,10.13
2019-04-30T20:14:44.313Z,10.06
2019-04-30T20:16:19.948Z,10.03
2019-04-30T20:17:58.336Z,9.99
2019-04-30T20:19:38.765Z,10.02
2019-04-30T20:21:26.274Z,10.01
2019-04-30T20:22:55.267Z,10.04
2019-04-30T20:24:35.387Z,9.99
2019-04-30T20:26:13.878Z,9.99
2019-04-30T20:27:52.238Z,9.94
2019-04-30T20:29:28.912Z,9.91
2019-04-30T20:31:09.110Z,9.82
2019-04-30T20:32:51.305Z,9.85
2019-04-30T20:34:30.188Z,9.85
2019-04-30T20:36:09.226Z,9.85
2019-04-30T20:38:02.139Z,9.81
2019-04-30T20:39:45.960Z,9.80
2019-04-30T20:41:25.624Z,9.78
2019-04-30T20:43:02.536Z,9.75
2019-04-30T20:44:39.530Z,9.71
2019-04-30T20:46:32.082Z,9.70
2019-04-30T20:48:02.159Z,9.65
2019-04-30T20:49:39.098Z,9.59
2019-04-30T20:51:14.458Z,9.59
2019-04-30T20:52:55.626Z,9.57
2019-04-30T20:54:32.386Z,9.52
2019-04-30T20:56:10.533Z,9.44
2019-04-30T20:57:51.226Z,9.44
2019-04-30T20:59:46.189Z,9.39
2019-04-30T21:01:23.592Z,9.42
2019-04-30T21:03:01.868Z,9.48
2019-04-30T21:04:39.578Z,9.44
2019-04-30T21:06:15.455Z,9.36
2019-04-30T21:08:00.727Z,9.37
2019-04-30T21:09:41.407Z,9.34
2019-04-30T21:11:25.012Z,9.24
2019-04-30T21:13:01.454Z,9.21
2019-04-30T21:14:38.515Z,9.14
2019-04-30T21:16:26.114Z,9.08
2019-04-30T21:18:03.105Z,9.03
2019-04-30T21:19:52.995Z,8.96
2019-04-30T21:21:33.784Z,8.88
2019-04-30T21:23:13.709Z,8.81
2019-04-30T21:24:54.930Z,8.77
2019-04-30T21:26:31.722Z,8.71
2019-04-30T21:28:09.860Z,8.69
2019-04-30T21:30:03.226Z,8.60
2019-04-30T21:31:58.008Z,8.54
2019-04-30T21:33:41.136Z,8.46
2019-04-30T21:35:33.787Z,8.50
2019-04-30T21:37:09.404Z,8.40
2019-04-30T21:38:44.556Z,8.32
2019-04-30T21:40:23.682Z,8.34
2019-04-30T21:42:01.620Z,8.30
2019-04-30T21:43:44.399Z,8.27
2019-04-30T21:45:22.417Z,8.35